Terminal Aerodrome Forecast
Issued by NWS

Home | Current Version | Previous Version | Text Only | Print | Product List | Glossary On
Versions: 1 2 3 4 5 6 7 8 9 10 11 12 13
933
FTUS44 KLZK 271730
TAFLLQ
TAF
KLLQ 271730Z 2718/2818 24007KT P6SM SCT035
     FM280100 22006KT P6SM SCT100 BKN250
     FM281200 26007KT P6SM OVC100=

USA.gov is the U.S. government's official web portal to all federal, state and local government web resources and services.